createdAt,value
2022-08-26T00:01:34.689Z,2.97
2022-08-26T00:06:38.495Z,3.30
2022-08-26T00:11:46.667Z,2.60
2022-08-26T00:16:52.083Z,3.22
2022-08-26T00:21:58.351Z,3.17
2022-08-26T00:27:07.127Z,3.80
2022-08-26T00:32:12.653Z,3.85
2022-08-26T00:37:18.745Z,3.25
2022-08-26T00:42:21.952Z,3.40
2022-08-26T00:47:35.520Z,3.70
2022-08-26T00:52:41.725Z,3.50
2022-08-26T00:57:49.347Z,3.25
2022-08-26T01:02:56.092Z,3.17
2022-08-26T01:07:59.321Z,3.38
2022-08-26T01:13:06.198Z,2.90
2022-08-26T01:18:12.831Z,3.17
2022-08-26T01:23:18.034Z,3.17
2022-08-26T01:28:29.681Z,2.90
2022-08-26T01:33:42.039Z,2.97
2022-08-26T01:38:47.386Z,3.03
2022-08-26T01:43:55.150Z,2.95
2022-08-26T01:49:01.152Z,3.00
2022-08-26T01:54:06.561Z,3.60
2022-08-26T01:59:13.063Z,3.05
2022-08-26T02:04:22.314Z,3.10
2022-08-26T02:09:27.223Z,2.75
2022-08-26T02:14:34.315Z,3.38
2022-08-26T02:19:42.864Z,3.38
2022-08-26T02:24:53.087Z,3.75
2022-08-26T02:29:59.861Z,3.75
2022-08-26T02:35:05.184Z,3.90
2022-08-26T02:40:12.969Z,3.40
2022-08-26T02:45:23.268Z,3.45
2022-08-26T02:50:27.908Z,3.97
2022-08-26T02:55:33.016Z,3.78
2022-08-26T03:00:38.423Z,3.60
2022-08-26T03:05:42.503Z,4.03
2022-08-26T03:10:48.156Z,4.32
2022-08-26T03:15:52.686Z,4.40
2022-08-26T03:20:55.925Z,4.30
2022-08-26T03:26:00.495Z,4.05
2022-08-26T03:31:03.913Z,4.40
2022-08-26T03:36:08.882Z,3.67
2022-08-26T03:41:13.510Z,4.50
2022-08-26T03:46:17.044Z,4.07
2022-08-26T03:51:21.015Z,3.55
2022-08-26T03:56:25.914Z,4.03
2022-08-26T04:01:30.096Z,4.22
2022-08-26T04:06:36.598Z,4.55
2022-08-26T04:11:42.161Z,4.22
2022-08-26T04:16:45.967Z,3.78
2022-08-26T04:21:53.303Z,3.85
2022-08-26T04:26:58.166Z,4.20
2022-08-26T04:32:02.983Z,4.35
2022-08-26T04:37:13.355Z,4.75
2022-08-26T04:42:26.144Z,4.75
2022-08-26T04:47:32.300Z,4.45
2022-08-26T04:52:36.345Z,3.95
2022-08-26T04:57:41.592Z,4.15
2022-08-26T05:02:44.818Z,4.20
2022-08-26T05:07:48.147Z,4.63
2022-08-26T05:12:54.572Z,4.30
2022-08-26T05:17:59.163Z,5.13
2022-08-26T05:23:04.548Z,4.90
2022-08-26T05:28:09.472Z,4.38
2022-08-26T05:33:13.546Z,4.22
2022-08-26T05:38:19.383Z,4.03
2022-08-26T05:43:24.105Z,4.30
2022-08-26T05:48:27.951Z,3.72
2022-08-26T05:53:31.937Z,4.20
2022-08-26T05:58:38.016Z,4.68
2022-08-26T06:03:44.736Z,4.80
2022-08-26T06:08:48.604Z,3.92
2022-08-26T06:13:54.426Z,4.18
2022-08-26T06:18:57.987Z,3.58
2022-08-26T06:24:21.561Z,3.65
2022-08-26T06:29:34.898Z,3.55
2022-08-26T06:34:39.534Z,2.40
2022-08-26T06:39:43.038Z,2.97
2022-08-26T06:44:47.604Z,3.40
2022-08-26T06:49:51.398Z,3.00
2022-08-26T06:54:55.030Z,2.92
2022-08-26T06:59:59.668Z,2.90
2022-08-26T07:05:03.026Z,2.85
2022-08-26T07:10:08.577Z,2.85
2022-08-26T07:15:14.685Z,2.90
2022-08-26T07:20:18.392Z,2.60
2022-08-26T07:25:22.830Z,2.53
2022-08-26T07:30:28.042Z,2.58
2022-08-26T07:35:31.204Z,2.50
2022-08-26T07:40:40.756Z,2.22
2022-08-26T07:45:45.470Z,2.05
2022-08-26T07:50:50.522Z,1.90
2022-08-26T07:55:57.375Z,2.30
2022-08-26T08:01:02.629Z,2.20
2022-08-26T08:06:08.923Z,1.98
2022-08-26T08:11:13.104Z,2.13
2022-08-26T08:16:17.992Z,2.22
2022-08-26T08:21:26.990Z,2.22
2022-08-26T08:26:30.388Z,2.15
2022-08-26T08:36:59.221Z,2.30
2022-08-26T08:42:37.935Z,2.22
2022-08-26T08:47:47.511Z,2.15
2022-08-26T08:52:57.268Z,2.70
2022-08-26T08:58:04.768Z,2.30
2022-08-26T09:03:18.936Z,2.33
2022-08-26T09:08:31.085Z,2.22
2022-08-26T09:13:36.743Z,2.30
2022-08-26T09:18:54.662Z,2.47
2022-08-26T09:23:58.770Z,2.30
2022-08-26T09:29:04.644Z,2.45
2022-08-26T09:34:17.319Z,2.90
2022-08-26T09:39:31.430Z,3.10
2022-08-26T09:44:35.381Z,2.47
2022-08-26T09:49:42.348Z,2.20
2022-08-26T09:54:46.592Z,2.63
2022-08-26T09:59:51.085Z,2.50
2022-08-26T10:04:58.956Z,3.08
2022-08-26T10:10:18.365Z,2.83
2022-08-26T10:15:25.392Z,3.58
2022-08-26T10:20:33.766Z,3.22
2022-08-26T10:25:48.753Z,3.55
2022-08-26T10:30:57.386Z,3.25
2022-08-26T10:36:36.432Z,3.65
2022-08-26T10:41:48.819Z,3.28
2022-08-26T10:46:57.491Z,3.42
2022-08-26T10:52:15.146Z,3.75
2022-08-26T10:57:27.819Z,4.13
2022-08-26T11:02:40.270Z,3.85
2022-08-26T11:07:54.865Z,3.75
2022-08-26T11:13:00.884Z,3.90
2022-08-26T11:18:07.463Z,3.80
2022-08-26T11:23:50.445Z,3.42
2022-08-26T11:28:54.112Z,3.47
2022-08-26T11:33:59.828Z,3.13
2022-08-26T11:39:14.171Z,3.38
2022-08-26T11:44:20.250Z,3.75
2022-08-26T11:49:24.988Z,3.95
2022-08-26T11:54:35.587Z,3.63
2022-08-26T11:59:42.402Z,2.97
2022-08-26T12:04:49.938Z,3.10
2022-08-26T12:10:00.494Z,3.42
2022-08-26T12:15:12.664Z,3.40
2022-08-26T12:20:21.456Z,3.65
2022-08-26T12:25:28.523Z,3.35
2022-08-26T12:30:39.577Z,3.80
2022-08-26T12:35:43.101Z,3.25
2022-08-26T12:40:50.306Z,3.95
2022-08-26T12:45:58.486Z,3.97
2022-08-26T12:51:02.352Z,3.40
2022-08-26T12:56:28.418Z,4.13
2022-08-26T13:01:39.213Z,4.30
2022-08-26T13:06:42.556Z,3.97
2022-08-26T13:12:02.131Z,4.05
2022-08-26T13:17:05.734Z,4.18
2022-08-26T13:22:13.002Z,3.65
2022-08-26T13:27:20.568Z,4.13
2022-08-26T13:32:24.787Z,3.78
2022-08-26T13:37:34.532Z,4.15
2022-08-26T13:42:49.801Z,4.20
2022-08-26T13:47:53.399Z,4.05
2022-08-26T13:52:56.693Z,3.95
2022-08-26T13:58:01.461Z,4.28
2022-08-26T14:03:08.210Z,4.20
2022-08-26T14:08:14.870Z,4.32
2022-08-26T14:13:19.517Z,3.88
2022-08-26T14:18:26.980Z,3.55
2022-08-26T14:23:31.605Z,3.70
2022-08-26T14:28:36.799Z,3.67
2022-08-26T14:33:40.259Z,4.38
2022-08-26T14:38:43.478Z,4.10
2022-08-26T14:44:00.438Z,3.90
2022-08-26T14:49:09.918Z,3.85
2022-08-26T14:54:16.246Z,3.50
2022-08-26T14:59:24.033Z,3.92
2022-08-26T15:04:27.688Z,3.30
2022-08-26T15:09:35.996Z,3.75
2022-08-26T15:14:40.737Z,3.60
2022-08-26T15:19:44.185Z,2.28
2022-08-26T15:24:47.705Z,2.50
2022-08-26T15:29:56.402Z,3.17
2022-08-26T15:34:59.764Z,3.45
2022-08-26T15:40:03.371Z,3.08
2022-08-26T15:45:09.142Z,3.42
2022-08-26T15:50:13.111Z,3.42
2022-08-26T15:55:16.534Z,3.45
2022-08-26T16:00:21.415Z,3.70
2022-08-26T16:05:24.660Z,3.47
2022-08-26T16:10:27.868Z,3.95
2022-08-26T16:15:34.636Z,4.32
2022-08-26T16:20:39.567Z,3.60
2022-08-26T16:25:53.892Z,3.50
2022-08-26T16:30:58.579Z,3.80
2022-08-26T16:36:02.092Z,3.55
2022-08-26T16:41:06.087Z,3.28
2022-08-26T16:46:11.379Z,3.38
2022-08-26T16:51:16.459Z,3.45
2022-08-26T16:56:23.708Z,3.40
2022-08-26T17:01:38.332Z,3.72
2022-08-26T17:06:41.645Z,3.25
2022-08-26T17:11:45.242Z,3.08
2022-08-26T17:16:51.277Z,3.40
2022-08-26T17:21:54.639Z,3.35
2022-08-26T17:27:10.915Z,3.45
2022-08-26T17:32:15.697Z,3.75
2022-08-26T17:37:19.312Z,3.20
2022-08-26T17:42:22.828Z,3.78
2022-08-26T17:47:36.680Z,3.78
2022-08-26T17:52:41.283Z,3.72
2022-08-26T17:57:53.206Z,3.95
2022-08-26T18:02:58.447Z,3.78
2022-08-26T18:08:01.760Z,3.42
2022-08-26T18:13:05.063Z,2.95
2022-08-26T18:18:09.735Z,2.40
2022-08-26T18:23:13.541Z,3.15
2022-08-26T18:28:16.842Z,3.08
2022-08-26T18:33:22.305Z,2.78
2022-08-26T18:38:25.597Z,3.25
2022-08-26T18:43:31.941Z,3.30
2022-08-26T18:48:41.791Z,2.80
2022-08-26T18:53:45.267Z,3.55
2022-08-26T18:58:49.022Z,3.38
2022-08-26T19:03:54.239Z,2.80
2022-08-26T19:08:58.144Z,2.85
2022-08-26T19:14:02.267Z,2.35
2022-08-26T19:19:08.122Z,2.60
2022-08-26T19:24:15.522Z,2.40
2022-08-26T19:29:21.751Z,3.55
2022-08-26T19:34:26.949Z,3.40
2022-08-26T19:39:30.336Z,2.90
2022-08-26T19:44:50.987Z,2.78
2022-08-26T19:49:56.937Z,2.85
2022-08-26T19:55:04.301Z,2.17
2022-08-26T20:00:10.650Z,2.63
2022-08-26T20:05:17.271Z,2.50
2022-08-26T20:10:26.755Z,2.38
2022-08-26T20:15:30.202Z,2.58
2022-08-26T20:20:52.139Z,2.70
2022-08-26T20:25:57.516Z,2.30
2022-08-26T20:31:01.324Z,2.53
2022-08-26T20:36:08.574Z,2.55
2022-08-26T20:41:12.041Z,2.70
2022-08-26T20:46:17.386Z,2.70
2022-08-26T20:51:24.887Z,2.47
2022-08-26T20:56:28.186Z,2.30
2022-08-26T21:01:34.787Z,2.97
2022-08-26T21:06:40.108Z,2.42
2022-08-26T21:11:46.004Z,2.42
2022-08-26T21:16:49.288Z,2.58
2022-08-26T21:21:54.035Z,2.72
2022-08-26T21:26:57.681Z,2.67
2022-08-26T21:32:01.201Z,2.78
2022-08-26T21:37:09.025Z,2.95
2022-08-26T21:42:20.082Z,3.03
2022-08-26T21:47:24.474Z,2.58
2022-08-26T21:52:29.102Z,2.55
2022-08-26T21:57:34.064Z,2.40
2022-08-26T22:02:37.905Z,2.75
2022-08-26T22:07:42.612Z,3.75
2022-08-26T22:12:45.912Z,3.95
2022-08-26T22:17:49.096Z,4.00
2022-08-26T22:22:53.704Z,3.38
2022-08-26T22:27:56.958Z,2.60
2022-08-26T22:33:00.334Z,2.95
2022-08-26T22:38:05.098Z,2.63
2022-08-26T22:43:08.264Z,2.83
2022-08-26T22:48:13.049Z,3.28
2022-08-26T22:53:18.700Z,2.97
2022-08-26T22:58:23.144Z,3.30
2022-08-26T23:03:34.284Z,3.20
2022-08-26T23:08:40.471Z,3.65
2022-08-26T23:13:43.895Z,3.00
2022-08-26T23:18:47.467Z,3.42
2022-08-26T23:23:53.188Z,3.25
2022-08-26T23:28:56.733Z,3.30
2022-08-26T23:34:18.339Z,3.60
2022-08-26T23:39:23.048Z,3.30
2022-08-26T23:44:26.783Z,3.40
2022-08-26T23:49:30.540Z,2.95
2022-08-26T23:54:35.344Z,3.42
2022-08-26T23:59:39.350Z,3.28
